createdAt,value
2018-09-02T00:01:50.682Z,11.74
2018-09-02T00:04:20.126Z,11.58
2018-09-02T00:06:49.598Z,11.50
2018-09-02T00:09:18.994Z,11.45
2018-09-02T00:11:48.390Z,11.38
2018-09-02T00:14:17.784Z,11.37
2018-09-02T00:16:47.154Z,11.40
2018-09-02T00:19:16.546Z,11.40
2018-09-02T00:21:45.925Z,11.41
2018-09-02T00:24:15.374Z,11.31
2018-09-02T00:26:44.810Z,11.26
2018-09-02T00:29:14.222Z,10.97
2018-09-02T00:31:43.673Z,10.99
2018-09-02T00:34:13.071Z,11.02
2018-09-02T00:36:42.502Z,11.10
2018-09-02T00:39:12.310Z,11.05
2018-09-02T00:41:41.689Z,11.01
2018-09-02T00:44:11.356Z,10.98
2018-09-02T00:46:40.747Z,11.07
2018-09-02T00:49:10.202Z,11.03
2018-09-02T00:51:39.592Z,10.90
2018-09-02T00:54:08.985Z,10.88
2018-09-02T00:56:38.400Z,10.88
2018-09-02T00:59:07.790Z,10.93
2018-09-02T01:01:37.269Z,10.79
2018-09-02T01:04:06.745Z,10.58
2018-09-02T01:06:36.133Z,10.61
2018-09-02T01:09:07.134Z,10.74
2018-09-02T01:11:36.828Z,10.82
2018-09-02T01:14:06.364Z,10.89
2018-09-02T01:16:35.778Z,10.99
2018-09-02T01:19:05.206Z,11.11
2018-09-02T01:21:34.601Z,11.16
2018-09-02T01:24:04.003Z,11.30
2018-09-02T01:26:33.394Z,11.46
2018-09-02T01:29:02.774Z,11.58
2018-09-02T01:31:32.186Z,11.69
2018-09-02T01:34:01.554Z,11.67
2018-09-02T01:36:30.934Z,11.60
2018-09-02T01:39:00.310Z,11.44
2018-09-02T01:41:29.706Z,11.36
2018-09-02T01:43:59.118Z,11.22
2018-09-02T01:46:28.550Z,11.03
2018-09-02T01:48:57.965Z,10.96
2018-09-02T01:51:27.314Z,10.90
2018-09-02T01:53:56.807Z,10.77
2018-09-02T01:56:26.240Z,10.82
2018-09-02T01:58:55.595Z,10.77
2018-09-02T02:01:24.976Z,10.69
2018-09-02T02:03:54.432Z,10.68
2018-09-02T02:06:23.846Z,10.63
2018-09-02T02:08:53.354Z,10.60
2018-09-02T02:11:22.762Z,10.55
2018-09-02T02:13:52.166Z,10.52
2018-09-02T02:16:21.607Z,10.51
2018-09-02T02:18:51.026Z,10.36
2018-09-02T02:21:20.414Z,10.39
2018-09-02T02:23:49.826Z,10.47
2018-09-02T02:26:19.221Z,10.56
2018-09-02T02:28:49.879Z,10.66
2018-09-02T02:31:19.271Z,10.72
2018-09-02T02:38:51.561Z,10.68
2018-09-02T02:41:20.949Z,10.77
2018-09-02T02:43:50.343Z,10.91
2018-09-02T02:46:19.742Z,11.06
2018-09-02T02:48:49.178Z,11.24
2018-09-02T02:51:18.530Z,11.46
2018-09-02T02:53:47.922Z,11.53
2018-09-02T02:56:17.310Z,11.77
2018-09-02T02:58:46.895Z,11.88
2018-09-02T03:01:16.302Z,12.06
2018-09-02T03:03:45.706Z,12.07
2018-09-02T03:06:15.366Z,12.12
2018-09-02T03:08:44.781Z,12.21
2018-09-02T03:11:14.158Z,12.28
2018-09-02T03:13:43.578Z,12.36
2018-09-02T03:16:12.978Z,12.42
2018-09-02T03:18:42.381Z,12.46
2018-09-02T03:21:11.782Z,12.57
2018-09-02T03:23:41.210Z,12.57
2018-09-02T03:26:10.603Z,12.68
2018-09-02T03:28:40.050Z,12.72
2018-09-02T03:31:09.434Z,12.64
2018-09-02T03:33:38.838Z,12.68
2018-09-02T03:36:08.233Z,12.75
2018-09-02T03:38:37.679Z,12.77
2018-09-02T03:41:07.830Z,12.71
2018-09-02T03:43:37.222Z,12.77
2018-09-02T03:46:06.672Z,12.84
2018-09-02T03:48:36.042Z,12.84
2018-09-02T03:51:05.451Z,12.84
2018-09-02T03:53:34.878Z,12.86
2018-09-02T03:56:04.266Z,12.87
2018-09-02T03:58:33.650Z,12.85
2018-09-02T04:01:03.050Z,12.83
2018-09-02T04:03:32.446Z,12.89
2018-09-02T04:06:01.831Z,12.89
2018-09-02T04:08:31.217Z,12.91
2018-09-02T04:11:00.599Z,12.85
2018-09-02T04:13:29.958Z,12.91
2018-09-02T04:15:59.480Z,12.91
2018-09-02T04:18:28.843Z,12.79
2018-09-02T04:20:58.166Z,12.87
2018-09-02T04:23:27.555Z,12.93
2018-09-02T04:25:56.909Z,12.79
2018-09-02T04:28:26.266Z,12.56
2018-09-02T04:30:55.633Z,12.77
2018-09-02T04:33:24.986Z,12.80
2018-09-02T04:35:54.354Z,12.72
2018-09-02T04:38:23.727Z,12.70
2018-09-02T04:40:53.085Z,12.76
2018-09-02T04:43:22.474Z,12.85
2018-09-02T04:45:51.832Z,12.96
2018-09-02T04:48:21.185Z,13.05
2018-09-02T04:50:50.561Z,13.11
2018-09-02T04:53:19.956Z,13.20
2018-09-02T04:55:49.278Z,13.33
2018-09-02T04:58:18.636Z,13.37
2018-09-02T05:00:48.161Z,13.43
2018-09-02T05:03:17.542Z,13.42
2018-09-02T05:05:46.949Z,13.25
2018-09-02T05:08:16.403Z,13.16
2018-09-02T05:10:45.766Z,13.01
2018-09-02T05:13:15.139Z,13.06
2018-09-02T05:15:44.510Z,13.04
2018-09-02T05:18:14.018Z,13.03
2018-09-02T05:20:43.370Z,13.02
2018-09-02T05:23:12.766Z,13.02
2018-09-02T05:25:42.172Z,13.16
2018-09-02T05:28:11.525Z,13.17
2018-09-02T05:30:40.902Z,13.36
2018-09-02T05:33:10.289Z,13.45
2018-09-02T05:35:39.663Z,13.47
2018-09-02T05:38:09.432Z,13.54
2018-09-02T05:40:38.817Z,13.57
2018-09-02T05:43:08.246Z,13.54
2018-09-02T05:45:37.603Z,13.69
2018-09-02T05:48:07.001Z,13.76
2018-09-02T05:50:36.364Z,13.76
2018-09-02T05:53:05.710Z,13.81
2018-09-02T05:55:35.210Z,13.93
2018-09-02T05:58:04.769Z,14.02
2018-09-02T06:00:34.300Z,14.14
2018-09-02T06:03:03.841Z,14.24
2018-09-02T06:05:33.406Z,14.30
2018-09-02T06:08:02.930Z,14.32
2018-09-02T06:10:32.322Z,14.52
2018-09-02T06:13:01.721Z,14.64
2018-09-02T06:15:31.062Z,14.76
2018-09-02T06:18:00.457Z,14.77
2018-09-02T06:20:29.829Z,14.86
2018-09-02T06:22:59.177Z,14.88
2018-09-02T06:25:28.563Z,15.04
2018-09-02T06:27:57.926Z,15.23
2018-09-02T06:30:27.294Z,15.36
2018-09-02T06:32:56.764Z,15.35
2018-09-02T06:35:26.086Z,15.29
2018-09-02T06:37:55.427Z,15.25
2018-09-02T06:40:24.846Z,15.15
2018-09-02T06:42:54.177Z,15.33
2018-09-02T06:45:23.703Z,15.39
2018-09-02T06:47:53.094Z,15.44
2018-09-02T06:50:22.558Z,15.65
2018-09-02T06:52:51.906Z,15.69
2018-09-02T06:55:21.321Z,15.86
2018-09-02T06:57:50.681Z,15.95
2018-09-02T07:00:20.242Z,16.11
2018-09-02T07:02:50.094Z,16.15
2018-09-02T07:05:19.454Z,16.29
2018-09-02T07:07:48.846Z,16.25
2018-09-02T07:10:18.266Z,16.29
2018-09-02T07:12:47.754Z,16.28
2018-09-02T07:15:17.097Z,16.33
2018-09-02T07:17:46.525Z,16.37
2018-09-02T07:20:15.916Z,16.43
2018-09-02T07:22:45.238Z,16.40
2018-09-02T07:25:14.702Z,16.46
2018-09-02T07:27:44.062Z,16.62
2018-09-02T07:30:13.414Z,16.87
2018-09-02T07:32:43.010Z,16.86
2018-09-02T07:35:12.558Z,16.94
2018-09-02T07:37:41.963Z,17.00
2018-09-02T07:40:11.323Z,17.08
2018-09-02T07:42:40.714Z,17.10
2018-09-02T07:45:10.850Z,17.20
2018-09-02T07:47:40.237Z,17.37
2018-09-02T07:50:09.634Z,17.35
2018-09-02T07:52:38.979Z,17.51
2018-09-02T07:55:08.654Z,17.57
2018-09-02T07:57:38.011Z,17.71
2018-09-02T08:00:09.741Z,17.85
2018-09-02T08:02:39.286Z,18.08
2018-09-02T08:05:08.654Z,18.29
2018-09-02T08:07:38.106Z,18.21
2018-09-02T08:10:09.562Z,18.17
2018-09-02T08:12:39.252Z,18.44
2018-09-02T08:15:08.594Z,18.35
2018-09-02T08:17:38.294Z,18.31
2018-09-02T08:20:07.704Z,18.17
2018-09-02T08:22:37.696Z,17.94
2018-09-02T08:25:07.090Z,18.26
2018-09-02T08:27:36.447Z,18.31
2018-09-02T08:30:05.842Z,18.37
2018-09-02T08:32:35.223Z,18.60
2018-09-02T08:35:04.577Z,18.69
2018-09-02T08:37:33.947Z,19.05
2018-09-02T08:40:03.304Z,19.24
2018-09-02T08:42:32.661Z,19.53
2018-09-02T08:45:02.030Z,19.75
2018-09-02T08:47:31.402Z,19.83
2018-09-02T08:50:00.763Z,19.82
2018-09-02T08:52:30.126Z,19.99
2018-09-02T08:54:59.859Z,20.08
2018-09-02T08:57:29.197Z,20.10
2018-09-02T08:59:59.714Z,20.27
2018-09-02T09:02:29.382Z,20.27
2018-09-02T09:04:59.101Z,20.41
2018-09-02T09:07:29.702Z,20.28
2018-09-02T09:09:59.063Z,20.67
2018-09-02T09:12:28.418Z,21.17
2018-09-02T09:14:57.791Z,21.61
2018-09-02T09:17:27.153Z,21.94
2018-09-02T09:19:56.531Z,22.08
2018-09-02T09:22:25.913Z,21.95
2018-09-02T09:24:55.325Z,21.48
2018-09-02T09:27:24.762Z,21.56
2018-09-02T09:29:54.126Z,21.46
2018-09-02T09:32:23.577Z,21.24
2018-09-02T09:34:52.830Z,21.53
2018-09-02T09:37:22.224Z,21.66
2018-09-02T09:39:51.578Z,21.66
2018-09-02T09:42:20.957Z,21.84
2018-09-02T09:44:50.333Z,21.74
2018-09-02T09:47:19.681Z,21.90
2018-09-02T09:49:49.159Z,21.83
2018-09-02T09:52:18.553Z,21.97
2018-09-02T09:54:47.965Z,21.72
2018-09-02T09:57:17.317Z,21.84
2018-09-02T09:59:46.723Z,21.78
2018-09-02T10:02:16.140Z,21.78
2018-09-02T10:04:45.493Z,21.79
2018-09-02T10:07:14.862Z,21.85
2018-09-02T10:12:12.642Z,22.28
2018-09-02T10:14:42.031Z,22.58
2018-09-02T10:17:11.472Z,22.46
2018-09-02T10:19:40.799Z,22.34
2018-09-02T10:22:10.297Z,22.53
2018-09-02T10:24:39.654Z,22.40
2018-09-02T10:27:09.031Z,22.32
2018-09-02T10:29:38.518Z,22.26
2018-09-02T10:32:07.891Z,22.44
2018-09-02T10:34:37.280Z,21.96
2018-09-02T10:37:06.811Z,22.00
2018-09-02T10:39:36.165Z,22.03
2018-09-02T10:42:05.707Z,22.09
2018-09-02T10:44:35.132Z,22.46
2018-09-02T10:47:04.571Z,22.56
2018-09-02T10:49:34.117Z,22.74
2018-09-02T10:52:03.527Z,22.65
2018-09-02T10:54:32.931Z,22.90
2018-09-02T10:57:02.435Z,22.88
2018-09-02T10:59:31.812Z,23.00
2018-09-02T11:02:01.251Z,23.03
2018-09-02T11:04:30.720Z,23.03
2018-09-02T11:07:00.200Z,23.12
2018-09-02T11:09:29.604Z,23.36
2018-09-02T11:11:59.014Z,23.47
2018-09-02T11:14:28.416Z,23.66
2018-09-02T11:16:57.777Z,23.84
2018-09-02T11:19:27.180Z,24.05
2018-09-02T11:21:56.567Z,24.32
2018-09-02T11:24:25.944Z,24.45
2018-09-02T11:26:55.316Z,24.46
2018-09-02T11:29:24.748Z,24.56
2018-09-02T11:31:54.115Z,24.48
2018-09-02T11:34:23.540Z,24.52
2018-09-02T11:36:52.981Z,24.37
2018-09-02T11:39:22.394Z,24.24
2018-09-02T11:41:51.770Z,24.13
2018-09-02T11:44:21.174Z,23.88
2018-09-02T11:46:50.595Z,23.94
2018-09-02T11:49:19.928Z,23.75
2018-09-02T11:51:49.329Z,23.70
2018-09-02T11:54:18.750Z,23.55
2018-09-02T11:56:48.140Z,23.27
2018-09-02T11:59:17.540Z,22.97
2018-09-02T12:01:47.082Z,22.70
2018-09-02T12:04:16.442Z,22.84
2018-09-02T12:06:45.810Z,22.85
2018-09-02T12:09:15.204Z,22.87
2018-09-02T12:11:44.676Z,22.88
2018-09-02T12:14:13.978Z,22.82
2018-09-02T12:16:43.368Z,22.91
2018-09-02T12:19:12.730Z,22.74
2018-09-02T12:21:42.136Z,22.88
2018-09-02T12:24:11.524Z,22.85
2018-09-02T12:26:40.889Z,22.66
2018-09-02T12:29:10.258Z,22.28
2018-09-02T12:31:39.701Z,22.25
2018-09-02T12:34:09.038Z,22.04
2018-09-02T12:36:38.394Z,22.09
2018-09-02T12:39:08.730Z,22.05
2018-09-02T12:41:38.127Z,22.01
2018-09-02T12:44:07.666Z,21.65
2018-09-02T12:46:37.030Z,21.55
2018-09-02T12:49:06.610Z,21.25
2018-09-02T12:51:36.005Z,21.19
2018-09-02T12:54:05.428Z,21.20
2018-09-02T12:56:34.951Z,21.00
2018-09-02T12:59:04.334Z,20.88
2018-09-02T13:01:33.813Z,20.64
2018-09-02T13:04:03.212Z,20.72
2018-09-02T13:06:32.606Z,20.60
2018-09-02T13:09:02.062Z,20.72
2018-09-02T13:11:31.446Z,20.89
2018-09-02T13:14:00.831Z,20.82
2018-09-02T13:16:30.225Z,20.68
2018-09-02T13:18:59.653Z,20.57
2018-09-02T13:21:28.967Z,20.48
2018-09-02T13:23:58.415Z,20.42
2018-09-02T13:26:27.962Z,20.42
2018-09-02T13:28:57.334Z,20.61
2018-09-02T13:31:26.755Z,20.69
2018-09-02T13:33:56.110Z,20.57
2018-09-02T13:36:25.521Z,20.41
2018-09-02T13:38:54.918Z,20.32
2018-09-02T13:41:24.296Z,20.39
2018-09-02T13:43:53.754Z,20.33
2018-09-02T13:46:23.151Z,20.19
2018-09-02T13:48:52.742Z,20.16
2018-09-02T13:51:22.147Z,20.22
2018-09-02T13:53:51.526Z,20.08
2018-09-02T13:56:20.954Z,20.01
2018-09-02T13:58:50.377Z,20.00
2018-09-02T14:01:19.803Z,19.83
2018-09-02T14:03:49.148Z,19.60
2018-09-02T14:06:18.543Z,19.55
2018-09-02T14:08:47.927Z,19.52
2018-09-02T14:11:17.321Z,19.43
2018-09-02T14:13:46.878Z,19.64
2018-09-02T14:16:16.263Z,19.76
2018-09-02T14:18:45.672Z,19.87
2018-09-02T14:21:15.198Z,19.92
2018-09-02T14:23:44.623Z,19.79
2018-09-02T14:26:14.007Z,19.79
2018-09-02T14:28:43.390Z,19.87
2018-09-02T14:31:12.766Z,19.81
2018-09-02T14:33:42.165Z,19.67
2018-09-02T14:36:11.591Z,19.41
2018-09-02T14:38:40.966Z,19.62
2018-09-02T14:41:10.354Z,19.39
2018-09-02T14:43:39.733Z,19.27
2018-09-02T14:46:09.651Z,19.18
2018-09-02T14:48:39.030Z,19.24
2018-09-02T14:51:08.402Z,19.18
2018-09-02T14:53:37.855Z,19.39
2018-09-02T14:56:07.303Z,19.37
2018-09-02T14:58:36.715Z,19.46
2018-09-02T15:01:06.135Z,19.35
2018-09-02T15:03:35.589Z,19.34
2018-09-02T15:06:05.000Z,19.35
2018-09-02T15:08:34.406Z,19.47
2018-09-02T15:11:03.838Z,19.54
2018-09-02T15:13:33.259Z,19.43
2018-09-02T15:16:02.723Z,19.42
2018-09-02T15:18:32.671Z,19.26
2018-09-02T15:21:02.520Z,19.36
2018-09-02T15:23:32.896Z,19.28
2018-09-02T15:26:03.857Z,19.31
2018-09-02T15:28:33.927Z,19.16
2018-09-02T15:31:03.977Z,19.24
2018-09-02T15:33:33.565Z,19.40
2018-09-02T15:36:03.045Z,19.35
2018-09-02T15:38:32.908Z,19.33
2018-09-02T15:41:02.453Z,19.37
2018-09-02T15:43:32.162Z,19.45
2018-09-02T15:46:01.749Z,19.05
2018-09-02T15:48:31.585Z,18.94
2018-09-02T15:51:01.238Z,18.94
2018-09-02T15:53:30.736Z,19.04
2018-09-02T15:56:00.511Z,18.99
2018-09-02T15:58:30.008Z,18.75
2018-09-02T16:00:59.535Z,18.89
2018-09-02T16:03:29.553Z,18.82
2018-09-02T16:05:59.403Z,18.85
2018-09-02T16:08:34.830Z,18.91
2018-09-02T16:11:04.398Z,18.94
2018-09-02T16:13:34.447Z,18.98
2018-09-02T16:16:04.114Z,19.13
2018-09-02T16:18:33.987Z,19.09
2018-09-02T16:21:04.001Z,18.83
2018-09-02T16:23:35.776Z,18.95
2018-09-02T16:26:06.669Z,19.00
2018-09-02T16:28:37.387Z,19.01
2018-09-02T16:31:08.709Z,18.88
2018-09-02T16:33:41.634Z,18.85
2018-09-02T16:36:14.267Z,18.87
2018-09-02T16:38:45.409Z,18.81
2018-09-02T16:41:17.325Z,18.93
2018-09-02T16:43:48.440Z,19.00
2018-09-02T16:46:19.378Z,18.96
2018-09-02T16:48:51.172Z,19.04
2018-09-02T16:51:22.648Z,19.13
2018-09-02T16:53:54.379Z,18.86
2018-09-02T16:56:26.823Z,18.89
2018-09-02T16:58:58.784Z,18.92
2018-09-02T17:01:30.528Z,18.79
2018-09-02T17:04:05.697Z,18.86
2018-09-02T17:06:36.646Z,18.96
2018-09-02T17:09:12.003Z,19.03
2018-09-02T17:11:43.625Z,19.00
2018-09-02T17:14:15.557Z,18.95
2018-09-02T17:16:45.747Z,18.97
2018-09-02T17:19:19.111Z,18.86
2018-09-02T17:21:50.351Z,18.80
2018-09-02T17:24:21.218Z,18.66
2018-09-02T17:26:52.291Z,18.63
2018-09-02T17:29:23.333Z,18.52
2018-09-02T17:31:56.185Z,18.51
2018-09-02T17:34:28.595Z,18.56
2018-09-02T17:37:01.791Z,18.53
2018-09-02T17:39:34.670Z,18.65
2018-09-02T17:42:06.471Z,18.66
2018-09-02T17:44:39.289Z,18.72
2018-09-02T17:47:12.023Z,18.76
2018-09-02T17:49:44.359Z,18.59
2018-09-02T17:52:16.902Z,18.75
2018-09-02T17:54:50.224Z,18.73
2018-09-02T17:57:23.268Z,18.75
2018-09-02T17:59:56.519Z,18.49
2018-09-02T18:02:29.630Z,18.44
2018-09-02T18:05:02.452Z,18.42
2018-09-02T18:07:35.284Z,18.41
2018-09-02T18:10:08.001Z,18.44
2018-09-02T18:12:40.613Z,18.28
2018-09-02T18:15:13.680Z,18.35
2018-09-02T18:17:46.308Z,18.13
2018-09-02T18:20:19.210Z,18.23
2018-09-02T18:22:51.937Z,18.19
2018-09-02T18:25:25.063Z,18.15
2018-09-02T18:28:03.382Z,18.15
2018-09-02T18:30:36.174Z,18.09
2018-09-02T18:33:09.072Z,17.95
2018-09-02T18:35:41.867Z,17.78
2018-09-02T18:38:14.700Z,17.77
2018-09-02T18:40:47.881Z,17.63
2018-09-02T18:43:20.846Z,17.74
2018-09-02T18:45:54.319Z,17.72
2018-09-02T18:48:27.276Z,17.65
2018-09-02T18:51:00.408Z,17.54
2018-09-02T18:53:34.078Z,17.45
2018-09-02T18:56:07.340Z,17.50
2018-09-02T18:58:40.327Z,17.47
2018-09-02T19:01:13.203Z,17.30
2018-09-02T19:03:46.121Z,17.19
2018-09-02T19:06:19.752Z,17.08
2018-09-02T19:08:52.980Z,17.10
2018-09-02T19:11:26.172Z,17.08
2018-09-02T19:13:59.008Z,17.02
2018-09-02T19:16:32.106Z,16.96
2018-09-02T19:19:04.917Z,16.94
2018-09-02T19:21:38.615Z,17.01
2018-09-02T19:24:11.896Z,17.01
2018-09-02T19:26:44.868Z,16.92
2018-09-02T19:29:17.866Z,16.89
2018-09-02T19:31:51.382Z,16.80
2018-09-02T19:34:24.333Z,16.66
2018-09-02T19:36:57.350Z,16.69
2018-09-02T19:39:31.090Z,16.81
2018-09-02T19:42:03.979Z,16.78
2018-09-02T19:44:37.762Z,16.66
2018-09-02T19:47:11.055Z,16.77
2018-09-02T19:49:44.015Z,16.76
2018-09-02T19:52:17.234Z,16.56
2018-09-02T19:54:50.244Z,16.55
2018-09-02T19:57:23.503Z,16.59
2018-09-02T19:59:56.081Z,16.69
2018-09-02T20:02:29.829Z,16.71
2018-09-02T20:05:02.654Z,16.59
2018-09-02T20:07:35.723Z,16.55
2018-09-02T20:10:09.023Z,16.69
2018-09-02T20:12:41.906Z,16.64
2018-09-02T20:15:15.062Z,16.61
2018-09-02T20:17:48.971Z,16.61
2018-09-02T20:20:21.721Z,16.63
2018-09-02T20:22:54.589Z,16.79
2018-09-02T20:25:27.499Z,16.84
2018-09-02T20:28:00.593Z,16.87
2018-09-02T20:30:34.203Z,16.88
2018-09-02T20:33:07.371Z,16.81
2018-09-02T20:35:39.915Z,16.81
2018-09-02T20:38:11.613Z,16.82
2018-09-02T20:40:42.702Z,16.80
2018-09-02T20:43:12.514Z,16.90
2018-09-02T20:45:42.946Z,16.83
2018-09-02T20:48:12.451Z,16.75
2018-09-02T20:50:41.813Z,16.80
2018-09-02T20:53:11.174Z,16.79
2018-09-02T20:55:40.694Z,16.79
2018-09-02T20:58:10.127Z,16.74
2018-09-02T21:00:39.482Z,16.77
2018-09-02T21:03:08.880Z,16.82
2018-09-02T21:05:38.358Z,16.85
2018-09-02T21:08:07.906Z,17.00
2018-09-02T21:10:37.287Z,16.98
2018-09-02T21:13:06.649Z,17.04
2018-09-02T21:15:36.002Z,17.01
2018-09-02T21:18:05.482Z,17.00
2018-09-02T21:20:34.910Z,16.89
2018-09-02T21:23:04.282Z,17.03
2018-09-02T21:25:33.653Z,17.04
2018-09-02T21:28:03.029Z,16.91
2018-09-02T21:30:32.422Z,16.94
2018-09-02T21:33:01.774Z,16.93
2018-09-02T21:35:31.128Z,16.86
2018-09-02T21:38:00.511Z,16.89
2018-09-02T21:40:29.865Z,16.98
2018-09-02T21:42:59.226Z,17.04
2018-09-02T21:45:28.610Z,17.10
2018-09-02T21:47:57.970Z,17.11
2018-09-02T21:50:27.374Z,17.27
2018-09-02T21:52:56.773Z,17.25
2018-09-02T21:55:26.126Z,17.33
2018-09-02T21:57:55.477Z,17.44
2018-09-02T22:00:24.877Z,17.46
2018-09-02T22:02:54.243Z,17.41
2018-09-02T22:05:23.635Z,17.46
2018-09-02T22:07:53.009Z,17.50
2018-09-02T22:10:22.363Z,17.53
2018-09-02T22:12:51.717Z,17.53
2018-09-02T22:15:21.154Z,17.50
2018-09-02T22:17:50.517Z,17.61
2018-09-02T22:20:19.878Z,17.62
2018-09-02T22:22:49.253Z,17.61
2018-09-02T22:25:18.610Z,17.65
2018-09-02T22:27:47.973Z,17.59
2018-09-02T22:30:17.362Z,17.73
2018-09-02T22:32:46.830Z,17.58
2018-09-02T22:35:16.181Z,17.62
2018-09-02T22:37:45.549Z,17.70
2018-09-02T22:40:14.910Z,17.74
2018-09-02T22:42:44.350Z,17.81
2018-09-02T22:45:13.724Z,17.78
2018-09-02T22:47:43.162Z,17.77
2018-09-02T22:50:12.561Z,17.83
2018-09-02T22:52:41.930Z,17.90
2018-09-02T22:55:11.289Z,17.78
2018-09-02T22:57:40.682Z,17.83
2018-09-02T23:00:10.086Z,17.88
2018-09-02T23:02:39.459Z,17.98
2018-09-02T23:05:08.821Z,17.89
2018-09-02T23:07:38.182Z,17.58
2018-09-02T23:10:07.622Z,17.75
2018-09-02T23:12:37.029Z,17.82
2018-09-02T23:15:06.476Z,17.80
2018-09-02T23:17:35.890Z,17.83
2018-09-02T23:20:05.405Z,17.94
2018-09-02T23:22:34.761Z,17.86
2018-09-02T23:25:04.186Z,17.96
2018-09-02T23:27:33.624Z,17.91
2018-09-02T23:30:02.969Z,17.95
2018-09-02T23:32:32.350Z,17.89
2018-09-02T23:35:01.706Z,17.86
2018-09-02T23:37:31.065Z,17.78
2018-09-02T23:40:00.471Z,17.74
2018-09-02T23:42:29.854Z,17.80
2018-09-02T23:44:59.223Z,17.88
2018-09-02T23:47:28.574Z,17.83
2018-09-02T23:49:57.952Z,17.80
2018-09-02T23:52:27.329Z,17.82
2018-09-02T23:54:56.703Z,17.78
2018-09-02T23:57:26.077Z,17.88
2018-09-02T23:59:55.435Z,17.74
